sensor_id;sensor_type;location;lat;lon;timestamp;temperature;humidity
8408;DHT22;4241;48.452;9.216;2024-03-08T00:01:45;3.40;99.90
8408;DHT22;4241;48.452;9.216;2024-03-08T00:04:12;3.40;99.90
8408;DHT22;4241;48.452;9.216;2024-03-08T00:06:40;3.40;99.90
8408;DHT22;4241;48.452;9.216;2024-03-08T00:09:07;3.20;99.90
8408;DHT22;4241;48.452;9.216;2024-03-08T00:11:34;3.40;99.90
8408;DHT22;4241;48.452;9.216;2024-03-08T00:14:01;3.40;99.90
8408;DHT22;4241;48.452;9.216;2024-03-08T00:16:28;3.40;99.90
8408;DHT22;4241;48.452;9.216;2024-03-08T00:18:54;3.50;99.90
8408;DHT22;4241;48.452;9.216;2024-03-08T00:21:21;3.50;99.90
8408;DHT22;4241;48.452;9.216;2024-03-08T00:23:49;3.50;99.90
8408;DHT22;4241;48.452;9.216;2024-03-08T00:26:16;3.40;99.90
8408;DHT22;4241;48.452;9.216;2024-03-08T00:28:45;3.50;99.90
8408;DHT22;4241;48.452;9.216;2024-03-08T00:31:12;3.40;99.90
8408;DHT22;4241;48.452;9.216;2024-03-08T00:33:39;3.40;99.90
8408;DHT22;4241;48.452;9.216;2024-03-08T00:36:06;3.40;99.90
8408;DHT22;4241;48.452;9.216;2024-03-08T00:38:33;3.40;99.90
8408;DHT22;4241;48.452;9.216;2024-03-08T00:41:02;3.30;99.90
8408;DHT22;4241;48.452;9.216;2024-03-08T00:43:28;3.30;99.90
8408;DHT22;4241;48.452;9.216;2024-03-08T00:45:55;3.50;99.90
8408;DHT22;4241;48.452;9.216;2024-03-08T00:48:23;3.30;99.90
8408;DHT22;4241;48.452;9.216;2024-03-08T00:50:50;3.30;99.90
8408;DHT22;4241;48.452;9.216;2024-03-08T00:53:16;3.30;99.90
8408;DHT22;4241;48.452;9.216;2024-03-08T00:55:43;3.30;99.90
8408;DHT22;4241;48.452;9.216;2024-03-08T00:58:13;3.30;99.90
8408;DHT22;4241;48.452;9.216;2024-03-08T01:00:40;3.20;99.90
8408;DHT22;4241;48.452;9.216;2024-03-08T01:03:06;3.20;99.90
8408;DHT22;4241;48.452;9.216;2024-03-08T01:05:33;3.10;99.90
8408;DHT22;4241;48.452;9.216;2024-03-08T01:08:01;3.20;99.90
8408;DHT22;4241;48.452;9.216;2024-03-08T01:10:29;3.20;99.90
8408;DHT22;4241;48.452;9.216;2024-03-08T01:12:55;3.10;99.90
8408;DHT22;4241;48.452;9.216;2024-03-08T01:15:26;3.20;99.90
8408;DHT22;4241;48.452;9.216;2024-03-08T01:17:53;3.20;99.90
8408;DHT22;4241;48.452;9.216;2024-03-08T01:20:19;3.20;99.90
8408;DHT22;4241;48.452;9.216;2024-03-08T01:22:46;3.10;99.90
8408;DHT22;4241;48.452;9.216;2024-03-08T01:25:13;3.10;99.90
8408;DHT22;4241;48.452;9.216;2024-03-08T01:27:40;3.00;99.90
8408;DHT22;4241;48.452;9.216;2024-03-08T01:30:07;3.00;99.90
8408;DHT22;4241;48.452;9.216;2024-03-08T01:32:36;3.00;99.90
8408;DHT22;4241;48.452;9.216;2024-03-08T01:35:04;2.90;99.90
8408;DHT22;4241;48.452;9.216;2024-03-08T01:37:31;3.00;99.90
8408;DHT22;4241;48.452;9.216;2024-03-08T01:39:58;3.00;99.90
8408;DHT22;4241;48.452;9.216;2024-03-08T01:42:25;3.00;99.90
8408;DHT22;4241;48.452;9.216;2024-03-08T01:44:51;3.00;99.90
8408;DHT22;4241;48.452;9.216;2024-03-08T01:47:18;2.90;99.90
8408;DHT22;4241;48.452;9.216;2024-03-08T01:49:49;2.90;99.90
8408;DHT22;4241;48.452;9.216;2024-03-08T01:52:17;2.90;99.90
8408;DHT22;4241;48.452;9.216;2024-03-08T01:54:48;2.90;99.90
8408;DHT22;4241;48.452;9.216;2024-03-08T01:57:15;2.90;99.90
8408;DHT22;4241;48.452;9.216;2024-03-08T01:59:42;2.70;99.90
8408;DHT22;4241;48.452;9.216;2024-03-08T02:02:10;2.80;99.90
8408;DHT22;4241;48.452;9.216;2024-03-08T02:04:39;2.90;99.90
8408;DHT22;4241;48.452;9.216;2024-03-08T02:07:07;2.90;99.90
8408;DHT22;4241;48.452;9.216;2024-03-08T02:09:34;2.90;99.90
8408;DHT22;4241;48.452;9.216;2024-03-08T02:12:01;2.80;99.90
8408;DHT22;4241;48.452;9.216;2024-03-08T02:14:28;2.70;99.90
8408;DHT22;4241;48.452;9.216;2024-03-08T02:17:00;2.80;99.90
8408;DHT22;4241;48.452;9.216;2024-03-08T02:19:27;2.70;99.90
8408;DHT22;4241;48.452;9.216;2024-03-08T02:21:55;2.70;99.90
8408;DHT22;4241;48.452;9.216;2024-03-08T02:24:22;2.60;99.90
8408;DHT22;4241;48.452;9.216;2024-03-08T02:26:51;2.60;99.90
8408;DHT22;4241;48.452;9.216;2024-03-08T02:29:19;2.80;99.90
8408;DHT22;4241;48.452;9.216;2024-03-08T02:31:46;2.50;99.90
8408;DHT22;4241;48.452;9.216;2024-03-08T02:34:13;2.50;99.90
8408;DHT22;4241;48.452;9.216;2024-03-08T02:36:40;2.60;99.90
8408;DHT22;4241;48.452;9.216;2024-03-08T02:39:08;2.50;99.90
8408;DHT22;4241;48.452;9.216;2024-03-08T02:41:36;2.40;99.90
8408;DHT22;4241;48.452;9.216;2024-03-08T02:44:03;2.50;99.90
8408;DHT22;4241;48.452;9.216;2024-03-08T02:46:29;2.30;99.90
8408;DHT22;4241;48.452;9.216;2024-03-08T02:48:56;2.20;99.90
8408;DHT22;4241;48.452;9.216;2024-03-08T02:51:23;2.30;99.90
8408;DHT22;4241;48.452;9.216;2024-03-08T02:53:51;2.60;99.90
8408;DHT22;4241;48.452;9.216;2024-03-08T02:56:20;2.60;99.90
8408;DHT22;4241;48.452;9.216;2024-03-08T02:58:47;2.70;99.90
8408;DHT22;4241;48.452;9.216;2024-03-08T03:01:14;2.20;99.90
8408;DHT22;4241;48.452;9.216;2024-03-08T03:03:41;2.60;99.90
8408;DHT22;4241;48.452;9.216;2024-03-08T03:06:07;2.20;99.90
8408;DHT22;4241;48.452;9.216;2024-03-08T03:08:34;2.10;99.90
8408;DHT22;4241;48.452;9.216;2024-03-08T03:11:01;2.00;99.90
8408;DHT22;4241;48.452;9.216;2024-03-08T03:13:29;2.10;99.90
8408;DHT22;4241;48.452;9.216;2024-03-08T03:15:56;2.10;99.90
8408;DHT22;4241;48.452;9.216;2024-03-08T03:18:23;2.90;99.90
8408;DHT22;4241;48.452;9.216;2024-03-08T03:20:51;2.10;99.90
8408;DHT22;4241;48.452;9.216;2024-03-08T03:23:18;2.30;99.90
8408;DHT22;4241;48.452;9.216;2024-03-08T03:25:46;2.10;99.90
8408;DHT22;4241;48.452;9.216;2024-03-08T03:28:12;2.20;99.90
8408;DHT22;4241;48.452;9.216;2024-03-08T03:30:44;2.10;99.90
8408;DHT22;4241;48.452;9.216;2024-03-08T03:33:12;1.90;99.90
8408;DHT22;4241;48.452;9.216;2024-03-08T03:35:40;2.10;99.90
8408;DHT22;4241;48.452;9.216;2024-03-08T03:38:08;2.00;99.90
8408;DHT22;4241;48.452;9.216;2024-03-08T03:40:35;2.20;99.90
8408;DHT22;4241;48.452;9.216;2024-03-08T03:43:03;2.00;99.90
8408;DHT22;4241;48.452;9.216;2024-03-08T03:45:30;2.10;99.90
8408;DHT22;4241;48.452;9.216;2024-03-08T03:48:02;2.10;99.90
8408;DHT22;4241;48.452;9.216;2024-03-08T03:50:29;2.10;99.90
8408;DHT22;4241;48.452;9.216;2024-03-08T03:52:55;1.80;99.90
8408;DHT22;4241;48.452;9.216;2024-03-08T03:55:22;2.20;99.90
8408;DHT22;4241;48.452;9.216;2024-03-08T03:57:49;2.50;99.90
8408;DHT22;4241;48.452;9.216;2024-03-08T04:00:16;0.20;99.90
8408;DHT22;4241;48.452;9.216;2024-03-08T04:02:43;2.20;99.90
8408;DHT22;4241;48.452;9.216;2024-03-08T04:05:12;2.40;99.90
8408;DHT22;4241;48.452;9.216;2024-03-08T04:07:39;2.90;99.90
8408;DHT22;4241;48.452;9.216;2024-03-08T04:10:08;2.20;99.90
8408;DHT22;4241;48.452;9.216;2024-03-08T04:12:35;2.20;99.90
8408;DHT22;4241;48.452;9.216;2024-03-08T04:15:03;2.30;99.90
8408;DHT22;4241;48.452;9.216;2024-03-08T04:17:30;2.30;99.90
8408;DHT22;4241;48.452;9.216;2024-03-08T04:19:57;2.30;99.90
8408;DHT22;4241;48.452;9.216;2024-03-08T04:22:25;2.30;99.90
8408;DHT22;4241;48.452;9.216;2024-03-08T04:24:54;2.30;99.90
8408;DHT22;4241;48.452;9.216;2024-03-08T04:27:20;2.30;99.90
8408;DHT22;4241;48.452;9.216;2024-03-08T04:29:47;2.20;99.90
8408;DHT22;4241;48.452;9.216;2024-03-08T04:32:14;2.30;99.90
8408;DHT22;4241;48.452;9.216;2024-03-08T04:34:41;2.30;99.90
8408;DHT22;4241;48.452;9.216;2024-03-08T04:37:07;2.40;99.90
8408;DHT22;4241;48.452;9.216;2024-03-08T04:39:37;2.30;99.90
8408;DHT22;4241;48.452;9.216;2024-03-08T04:42:05;2.40;99.90
8408;DHT22;4241;48.452;9.216;2024-03-08T04:44:35;2.40;99.90
8408;DHT22;4241;48.452;9.216;2024-03-08T04:47:03;2.40;99.90
8408;DHT22;4241;48.452;9.216;2024-03-08T04:49:31;2.40;99.90
8408;DHT22;4241;48.452;9.216;2024-03-08T04:52:00;2.50;99.90
8408;DHT22;4241;48.452;9.216;2024-03-08T04:54:28;2.50;99.90
8408;DHT22;4241;48.452;9.216;2024-03-08T04:56:56;2.50;99.90
8408;DHT22;4241;48.452;9.216;2024-03-08T04:59:23;2.50;99.90
8408;DHT22;4241;48.452;9.216;2024-03-08T05:01:50;2.50;99.90
8408;DHT22;4241;48.452;9.216;2024-03-08T05:04:17;2.50;99.90
8408;DHT22;4241;48.452;9.216;2024-03-08T05:06:43;2.50;99.90
8408;DHT22;4241;48.452;9.216;2024-03-08T05:09:10;2.50;99.90
8408;DHT22;4241;48.452;9.216;2024-03-08T05:11:40;2.40;99.90
8408;DHT22;4241;48.452;9.216;2024-03-08T05:14:08;2.50;99.90
8408;DHT22;4241;48.452;9.216;2024-03-08T05:16:35;2.60;99.90
8408;DHT22;4241;48.452;9.216;2024-03-08T05:19:02;2.60;99.90
8408;DHT22;4241;48.452;9.216;2024-03-08T05:21:29;2.60;99.90
8408;DHT22;4241;48.452;9.216;2024-03-08T05:23:55;2.60;99.90
8408;DHT22;4241;48.452;9.216;2024-03-08T05:26:22;2.60;99.90
8408;DHT22;4241;48.452;9.216;2024-03-08T05:28:49;2.60;99.90
8408;DHT22;4241;48.452;9.216;2024-03-08T05:31:20;2.60;99.90
8408;DHT22;4241;48.452;9.216;2024-03-08T05:33:49;2.60;99.90
8408;DHT22;4241;48.452;9.216;2024-03-08T05:36:15;2.60;99.90
8408;DHT22;4241;48.452;9.216;2024-03-08T05:38:43;2.60;99.90
8408;DHT22;4241;48.452;9.216;2024-03-08T05:41:09;2.50;99.90
8408;DHT22;4241;48.452;9.216;2024-03-08T05:43:37;2.50;99.90
8408;DHT22;4241;48.452;9.216;2024-03-08T05:46:04;2.50;99.90
8408;DHT22;4241;48.452;9.216;2024-03-08T05:48:32;2.50;99.90
8408;DHT22;4241;48.452;9.216;2024-03-08T05:51:00;2.50;99.90
8408;DHT22;4241;48.452;9.216;2024-03-08T05:53:27;2.50;99.90
8408;DHT22;4241;48.452;9.216;2024-03-08T05:55:57;2.50;99.90
8408;DHT22;4241;48.452;9.216;2024-03-08T05:58:24;2.50;99.90
8408;DHT22;4241;48.452;9.216;2024-03-08T06:00:50;2.60;99.90
8408;DHT22;4241;48.452;9.216;2024-03-08T06:03:17;2.40;99.90
8408;DHT22;4241;48.452;9.216;2024-03-08T06:05:48;2.60;99.90
8408;DHT22;4241;48.452;9.216;2024-03-08T06:08:15;2.60;99.90
8408;DHT22;4241;48.452;9.216;2024-03-08T06:10:42;2.70;99.90
8408;DHT22;4241;48.452;9.216;2024-03-08T06:13:08;2.80;99.90
8408;DHT22;4241;48.452;9.216;2024-03-08T06:15:37;2.70;99.90
8408;DHT22;4241;48.452;9.216;2024-03-08T06:18:04;2.70;99.90
8408;DHT22;4241;48.452;9.216;2024-03-08T06:20:31;2.80;99.90
8408;DHT22;4241;48.452;9.216;2024-03-08T06:23:00;0.80;99.90
8408;DHT22;4241;48.452;9.216;2024-03-08T06:25:26;2.80;99.90
8408;DHT22;4241;48.452;9.216;2024-03-08T06:27:53;2.70;99.90
8408;DHT22;4241;48.452;9.216;2024-03-08T06:30:20;2.80;99.90
8408;DHT22;4241;48.452;9.216;2024-03-08T06:32:47;2.80;99.90
8408;DHT22;4241;48.452;9.216;2024-03-08T06:35:14;2.50;99.90
8408;DHT22;4241;48.452;9.216;2024-03-08T06:37:41;2.60;99.90
8408;DHT22;4241;48.452;9.216;2024-03-08T06:40:12;2.60;99.90
8408;DHT22;4241;48.452;9.216;2024-03-08T06:42:40;2.60;99.90
8408;DHT22;4241;48.452;9.216;2024-03-08T06:45:07;2.50;99.90
8408;DHT22;4241;48.452;9.216;2024-03-08T06:47:35;2.50;99.90
8408;DHT22;4241;48.452;9.216;2024-03-08T06:50:02;2.50;99.90
8408;DHT22;4241;48.452;9.216;2024-03-08T06:52:31;2.50;99.90
8408;DHT22;4241;48.452;9.216;2024-03-08T06:54:58;2.50;99.90
8408;DHT22;4241;48.452;9.216;2024-03-08T06:57:28;2.60;99.90
8408;DHT22;4241;48.452;9.216;2024-03-08T06:59:55;2.50;99.90
8408;DHT22;4241;48.452;9.216;2024-03-08T07:02:22;2.60;99.90
8408;DHT22;4241;48.452;9.216;2024-03-08T07:04:50;2.70;99.90
8408;DHT22;4241;48.452;9.216;2024-03-08T07:07:18;2.70;99.90
8408;DHT22;4241;48.452;9.216;2024-03-08T07:09:46;2.60;99.90
8408;DHT22;4241;48.452;9.216;2024-03-08T07:12:15;2.50;99.90
8408;DHT22;4241;48.452;9.216;2024-03-08T07:14:43;2.60;99.90
8408;DHT22;4241;48.452;9.216;2024-03-08T07:17:11;2.60;99.90
8408;DHT22;4241;48.452;9.216;2024-03-08T07:19:38;2.60;99.90
8408;DHT22;4241;48.452;9.216;2024-03-08T07:22:05;2.60;99.90
8408;DHT22;4241;48.452;9.216;2024-03-08T07:24:34;2.60;99.90
8408;DHT22;4241;48.452;9.216;2024-03-08T07:27:16;2.60;99.90
8408;DHT22;4241;48.452;9.216;2024-03-08T07:29:44;2.70;99.90
8408;DHT22;4241;48.452;9.216;2024-03-08T07:32:11;2.80;99.90
8408;DHT22;4241;48.452;9.216;2024-03-08T07:34:47;2.80;99.90
8408;DHT22;4241;48.452;9.216;2024-03-08T07:37:14;2.90;99.90
8408;DHT22;4241;48.452;9.216;2024-03-08T07:39:41;2.90;99.90
8408;DHT22;4241;48.452;9.216;2024-03-08T07:42:09;3.00;99.90
8408;DHT22;4241;48.452;9.216;2024-03-08T07:44:37;3.10;99.90
8408;DHT22;4241;48.452;9.216;2024-03-08T07:47:05;3.20;99.90
8408;DHT22;4241;48.452;9.216;2024-03-08T07:49:35;3.20;99.90
8408;DHT22;4241;48.452;9.216;2024-03-08T07:52:02;3.20;99.90
8408;DHT22;4241;48.452;9.216;2024-03-08T07:54:33;3.30;99.90
8408;DHT22;4241;48.452;9.216;2024-03-08T07:57:00;3.20;99.90
8408;DHT22;4241;48.452;9.216;2024-03-08T07:59:28;3.10;99.90
8408;DHT22;4241;48.452;9.216;2024-03-08T08:01:55;3.20;99.90
8408;DHT22;4241;48.452;9.216;2024-03-08T08:04:24;3.10;99.90
8408;DHT22;4241;48.452;9.216;2024-03-08T08:06:52;3.10;99.90
8408;DHT22;4241;48.452;9.216;2024-03-08T08:09:20;3.20;99.90
8408;DHT22;4241;48.452;9.216;2024-03-08T08:11:54;3.10;99.90
8408;DHT22;4241;48.452;9.216;2024-03-08T08:14:21;3.10;99.90
8408;DHT22;4241;48.452;9.216;2024-03-08T08:16:48;3.20;99.90
8408;DHT22;4241;48.452;9.216;2024-03-08T08:19:18;3.20;99.90
8408;DHT22;4241;48.452;9.216;2024-03-08T08:21:46;3.20;99.90
8408;DHT22;4241;48.452;9.216;2024-03-08T08:24:13;3.30;99.90
8408;DHT22;4241;48.452;9.216;2024-03-08T08:26:40;3.30;99.90
8408;DHT22;4241;48.452;9.216;2024-03-08T08:29:07;3.40;99.90
8408;DHT22;4241;48.452;9.216;2024-03-08T08:31:34;3.40;99.90
8408;DHT22;4241;48.452;9.216;2024-03-08T08:34:01;3.50;99.90
8408;DHT22;4241;48.452;9.216;2024-03-08T08:36:28;3.50;99.90
8408;DHT22;4241;48.452;9.216;2024-03-08T08:38:58;3.50;99.90
8408;DHT22;4241;48.452;9.216;2024-03-08T08:41:25;3.60;99.90
8408;DHT22;4241;48.452;9.216;2024-03-08T08:43:52;3.60;99.90
8408;DHT22;4241;48.452;9.216;2024-03-08T08:46:19;3.60;99.90
8408;DHT22;4241;48.452;9.216;2024-03-08T08:48:46;3.70;99.90
8408;DHT22;4241;48.452;9.216;2024-03-08T08:51:14;3.80;99.90
8408;DHT22;4241;48.452;9.216;2024-03-08T08:53:42;5.20;99.90
8408;DHT22;4241;48.452;9.216;2024-03-08T08:56:12;3.90;99.90
8408;DHT22;4241;48.452;9.216;2024-03-08T08:58:39;4.00;99.90
8408;DHT22;4241;48.452;9.216;2024-03-08T09:01:08;4.00;99.90
8408;DHT22;4241;48.452;9.216;2024-03-08T09:03:35;4.00;99.90
8408;DHT22;4241;48.452;9.216;2024-03-08T09:06:03;4.00;99.90
8408;DHT22;4241;48.452;9.216;2024-03-08T09:08:30;4.10;99.90
8408;DHT22;4241;48.452;9.216;2024-03-08T09:10:57;4.10;99.90
8408;DHT22;4241;48.452;9.216;2024-03-08T09:13:26;4.10;99.90
8408;DHT22;4241;48.452;9.216;2024-03-08T09:15:53;4.10;99.90
8408;DHT22;4241;48.452;9.216;2024-03-08T09:18:20;4.30;99.90
8408;DHT22;4241;48.452;9.216;2024-03-08T09:20:47;4.20;99.90
8408;DHT22;4241;48.452;9.216;2024-03-08T09:23:14;4.20;99.90
8408;DHT22;4241;48.452;9.216;2024-03-08T09:25:42;4.20;99.90
8408;DHT22;4241;48.452;9.216;2024-03-08T09:28:09;4.30;99.90
8408;DHT22;4241;48.452;9.216;2024-03-08T09:30:38;4.30;99.90
8408;DHT22;4241;48.452;9.216;2024-03-08T09:33:05;4.40;99.90
8408;DHT22;4241;48.452;9.216;2024-03-08T09:35:32;4.50;99.90
8408;DHT22;4241;48.452;9.216;2024-03-08T09:37:59;4.50;99.90
8408;DHT22;4241;48.452;9.216;2024-03-08T09:40:26;4.40;99.90
8408;DHT22;4241;48.452;9.216;2024-03-08T09:42:53;4.70;99.90
8408;DHT22;4241;48.452;9.216;2024-03-08T09:45:21;4.70;99.90
8408;DHT22;4241;48.452;9.216;2024-03-08T09:47:50;4.80;99.90
8408;DHT22;4241;48.452;9.216;2024-03-08T09:50:18;4.90;99.90
8408;DHT22;4241;48.452;9.216;2024-03-08T09:52:47;5.00;99.90
8408;DHT22;4241;48.452;9.216;2024-03-08T09:55:16;5.00;99.90
8408;DHT22;4241;48.452;9.216;2024-03-08T09:57:48;5.00;99.90
8408;DHT22;4241;48.452;9.216;2024-03-08T10:00:42;5.10;99.90
8408;DHT22;4241;48.452;9.216;2024-03-08T10:03:10;5.00;99.90
8408;DHT22;4241;48.452;9.216;2024-03-08T10:05:40;5.00;99.90
8408;DHT22;4241;48.452;9.216;2024-03-08T10:08:07;5.20;99.90
8408;DHT22;4241;48.452;9.216;2024-03-08T10:10:34;5.40;99.90
8408;DHT22;4241;48.452;9.216;2024-03-08T10:13:01;5.30;99.90
8408;DHT22;4241;48.452;9.216;2024-03-08T10:15:28;5.40;99.90
8408;DHT22;4241;48.452;9.216;2024-03-08T10:17:56;5.50;99.90
8408;DHT22;4241;48.452;9.216;2024-03-08T10:20:24;5.50;99.90
8408;DHT22;4241;48.452;9.216;2024-03-08T10:22:52;5.70;99.90
8408;DHT22;4241;48.452;9.216;2024-03-08T10:25:19;5.80;99.90
8408;DHT22;4241;48.452;9.216;2024-03-08T10:27:46;5.90;99.90
8408;DHT22;4241;48.452;9.216;2024-03-08T10:30:15;6.00;99.90
8408;DHT22;4241;48.452;9.216;2024-03-08T10:32:45;6.00;99.90
8408;DHT22;4241;48.452;9.216;2024-03-08T10:35:12;6.10;99.90
8408;DHT22;4241;48.452;9.216;2024-03-08T10:37:45;6.10;99.90
8408;DHT22;4241;48.452;9.216;2024-03-08T10:40:16;6.00;99.90
8408;DHT22;4241;48.452;9.216;2024-03-08T10:42:51;6.00;99.90
8408;DHT22;4241;48.452;9.216;2024-03-08T10:45:26;6.20;99.90
8408;DHT22;4241;48.452;9.216;2024-03-08T10:48:08;6.20;99.90
8408;DHT22;4241;48.452;9.216;2024-03-08T10:50:36;6.50;99.90
8408;DHT22;4241;48.452;9.216;2024-03-08T10:53:06;6.60;99.90
8408;DHT22;4241;48.452;9.216;2024-03-08T10:55:37;6.80;99.90
8408;DHT22;4241;48.452;9.216;2024-03-08T10:58:06;6.90;99.90
8408;DHT22;4241;48.452;9.216;2024-03-08T11:00:33;7.30;99.90
8408;DHT22;4241;48.452;9.216;2024-03-08T11:03:01;7.30;99.90
8408;DHT22;4241;48.452;9.216;2024-03-08T11:05:36;7.50;99.90
8408;DHT22;4241;48.452;9.216;2024-03-08T11:08:16;7.50;99.90
8408;DHT22;4241;48.452;9.216;2024-03-08T11:10:47;7.60;99.90
8408;DHT22;4241;48.452;9.216;2024-03-08T11:13:34;7.60;99.90
8408;DHT22;4241;48.452;9.216;2024-03-08T11:16:02;7.80;99.90
8408;DHT22;4241;48.452;9.216;2024-03-08T11:18:32;7.90;99.90
8408;DHT22;4241;48.452;9.216;2024-03-08T11:21:02;7.90;99.90
8408;DHT22;4241;48.452;9.216;2024-03-08T11:23:32;8.00;99.90
8408;DHT22;4241;48.452;9.216;2024-03-08T11:25:59;8.00;99.90
8408;DHT22;4241;48.452;9.216;2024-03-08T11:28:26;8.00;99.90
8408;DHT22;4241;48.452;9.216;2024-03-08T11:31:24;8.10;99.90
8408;DHT22;4241;48.452;9.216;2024-03-08T11:33:52;8.10;99.90
8408;DHT22;4241;48.452;9.216;2024-03-08T11:36:21;8.00;99.90
8408;DHT22;4241;48.452;9.216;2024-03-08T11:38:50;8.10;99.90
8408;DHT22;4241;48.452;9.216;2024-03-08T11:41:19;8.00;99.90
8408;DHT22;4241;48.452;9.216;2024-03-08T11:43:46;8.00;99.90
8408;DHT22;4241;48.452;9.216;2024-03-08T11:46:14;8.10;99.90
8408;DHT22;4241;48.452;9.216;2024-03-08T11:48:42;8.30;99.90
8408;DHT22;4241;48.452;9.216;2024-03-08T11:51:09;8.30;99.90
8408;DHT22;4241;48.452;9.216;2024-03-08T11:53:38;8.30;99.90
8408;DHT22;4241;48.452;9.216;2024-03-08T11:56:08;8.30;99.90
8408;DHT22;4241;48.452;9.216;2024-03-08T11:58:37;8.30;99.90
8408;DHT22;4241;48.452;9.216;2024-03-08T12:01:04;8.40;99.90
8408;DHT22;4241;48.452;9.216;2024-03-08T12:03:32;8.30;99.90
8408;DHT22;4241;48.452;9.216;2024-03-08T12:05:59;8.20;99.90
8408;DHT22;4241;48.452;9.216;2024-03-08T12:08:26;8.20;99.90
8408;DHT22;4241;48.452;9.216;2024-03-08T12:10:55;8.30;99.90
8408;DHT22;4241;48.452;9.216;2024-03-08T12:13:26;8.50;99.90
8408;DHT22;4241;48.452;9.216;2024-03-08T12:15:56;8.50;99.90
8408;DHT22;4241;48.452;9.216;2024-03-08T12:18:24;8.60;99.90
8408;DHT22;4241;48.452;9.216;2024-03-08T12:20:51;8.70;99.90
8408;DHT22;4241;48.452;9.216;2024-03-08T12:23:18;8.70;99.90
8408;DHT22;4241;48.452;9.216;2024-03-08T12:25:45;8.70;99.90
8408;DHT22;4241;48.452;9.216;2024-03-08T12:28:13;8.90;99.90
8408;DHT22;4241;48.452;9.216;2024-03-08T12:30:46;8.50;99.90
8408;DHT22;4241;48.452;9.216;2024-03-08T12:33:14;8.50;99.90
8408;DHT22;4241;48.452;9.216;2024-03-08T12:35:50;8.30;99.90
8408;DHT22;4241;48.452;9.216;2024-03-08T12:38:20;8.30;99.90
8408;DHT22;4241;48.452;9.216;2024-03-08T12:40:51;8.10;99.90
8408;DHT22;4241;48.452;9.216;2024-03-08T12:43:22;7.90;99.90
8408;DHT22;4241;48.452;9.216;2024-03-08T12:45:50;8.00;99.90
8408;DHT22;4241;48.452;9.216;2024-03-08T12:48:18;8.10;99.90
8408;DHT22;4241;48.452;9.216;2024-03-08T12:50:46;8.00;99.90
8408;DHT22;4241;48.452;9.216;2024-03-08T12:53:13;8.00;99.90
8408;DHT22;4241;48.452;9.216;2024-03-08T12:55:40;7.90;99.90
8408;DHT22;4241;48.452;9.216;2024-03-08T12:58:07;7.70;99.90
8408;DHT22;4241;48.452;9.216;2024-03-08T13:00:34;7.50;99.90
8408;DHT22;4241;48.452;9.216;2024-03-08T13:03:03;7.80;99.90
8408;DHT22;4241;48.452;9.216;2024-03-08T13:05:32;7.70;99.90
8408;DHT22;4241;48.452;9.216;2024-03-08T13:07:58;7.60;99.90
8408;DHT22;4241;48.452;9.216;2024-03-08T13:10:25;7.70;99.90
8408;DHT22;4241;48.452;9.216;2024-03-08T13:12:52;7.80;99.90
8408;DHT22;4241;48.452;9.216;2024-03-08T13:15:20;7.80;99.90
8408;DHT22;4241;48.452;9.216;2024-03-08T13:17:47;7.80;99.90
8408;DHT22;4241;48.452;9.216;2024-03-08T13:20:16;7.80;99.90
8408;DHT22;4241;48.452;9.216;2024-03-08T13:22:45;7.80;99.90
8408;DHT22;4241;48.452;9.216;2024-03-08T13:25:12;7.80;99.90
8408;DHT22;4241;48.452;9.216;2024-03-08T13:27:40;7.90;99.90
8408;DHT22;4241;48.452;9.216;2024-03-08T13:30:08;7.80;99.90
8408;DHT22;4241;48.452;9.216;2024-03-08T13:32:38;7.80;99.90
8408;DHT22;4241;48.452;9.216;2024-03-08T13:35:06;7.90;99.90
8408;DHT22;4241;48.452;9.216;2024-03-08T13:37:39;7.90;99.90
8408;DHT22;4241;48.452;9.216;2024-03-08T13:40:07;7.80;99.90
8408;DHT22;4241;48.452;9.216;2024-03-08T13:42:36;7.90;99.90
8408;DHT22;4241;48.452;9.216;2024-03-08T13:45:04;7.90;99.90
8408;DHT22;4241;48.452;9.216;2024-03-08T13:47:32;8.00;99.90
8408;DHT22;4241;48.452;9.216;2024-03-08T13:49:59;8.00;99.90
8408;DHT22;4241;48.452;9.216;2024-03-08T13:52:27;8.00;99.90
8408;DHT22;4241;48.452;9.216;2024-03-08T13:54:56;8.00;99.90
8408;DHT22;4241;48.452;9.216;2024-03-08T13:57:23;8.00;99.90
8408;DHT22;4241;48.452;9.216;2024-03-08T13:59:49;8.10;99.90
8408;DHT22;4241;48.452;9.216;2024-03-08T14:02:17;8.10;99.90
8408;DHT22;4241;48.452;9.216;2024-03-08T14:04:43;8.10;99.90
8408;DHT22;4241;48.452;9.216;2024-03-08T14:07:10;8.10;99.90
8408;DHT22;4241;48.452;9.216;2024-03-08T14:09:37;8.10;99.90
8408;DHT22;4241;48.452;9.216;2024-03-08T14:12:09;8.20;99.90
8408;DHT22;4241;48.452;9.216;2024-03-08T14:14:36;8.20;99.90
8408;DHT22;4241;48.452;9.216;2024-03-08T14:17:04;8.00;99.90
8408;DHT22;4241;48.452;9.216;2024-03-08T14:19:33;8.30;99.90
8408;DHT22;4241;48.452;9.216;2024-03-08T14:22:00;8.40;99.90
8408;DHT22;4241;48.452;9.216;2024-03-08T14:24:29;8.40;99.90
8408;DHT22;4241;48.452;9.216;2024-03-08T14:26:56;8.50;99.90
8408;DHT22;4241;48.452;9.216;2024-03-08T14:29:25;8.50;99.90
8408;DHT22;4241;48.452;9.216;2024-03-08T14:31:54;8.60;99.90
8408;DHT22;4241;48.452;9.216;2024-03-08T14:34:23;8.70;99.90
8408;DHT22;4241;48.452;9.216;2024-03-08T14:36:52;8.70;99.90
8408;DHT22;4241;48.452;9.216;2024-03-08T14:39:19;8.70;99.90
8408;DHT22;4241;48.452;9.216;2024-03-08T14:41:47;8.70;99.90
8408;DHT22;4241;48.452;9.216;2024-03-08T14:44:15;8.80;99.90
8408;DHT22;4241;48.452;9.216;2024-03-08T14:46:45;8.80;99.90
8408;DHT22;4241;48.452;9.216;2024-03-08T14:49:12;8.80;99.90
8408;DHT22;4241;48.452;9.216;2024-03-08T14:51:39;8.80;99.90
8408;DHT22;4241;48.452;9.216;2024-03-08T14:54:06;8.90;99.90
8408;DHT22;4241;48.452;9.216;2024-03-08T14:56:36;8.90;99.90
8408;DHT22;4241;48.452;9.216;2024-03-08T14:59:03;8.90;99.90
8408;DHT22;4241;48.452;9.216;2024-03-08T15:01:30;8.90;99.90
8408;DHT22;4241;48.452;9.216;2024-03-08T15:04:00;9.00;99.90
8408;DHT22;4241;48.452;9.216;2024-03-08T15:06:34;9.00;99.90
8408;DHT22;4241;48.452;9.216;2024-03-08T15:09:02;9.10;99.90
8408;DHT22;4241;48.452;9.216;2024-03-08T15:11:36;9.10;99.90
8408;DHT22;4241;48.452;9.216;2024-03-08T15:14:04;9.10;99.90
8408;DHT22;4241;48.452;9.216;2024-03-08T15:16:35;9.20;99.90
8408;DHT22;4241;48.452;9.216;2024-03-08T15:19:03;9.20;99.90
8408;DHT22;4241;48.452;9.216;2024-03-08T15:21:31;9.20;99.90
8408;DHT22;4241;48.452;9.216;2024-03-08T15:23:59;9.20;99.90
8408;DHT22;4241;48.452;9.216;2024-03-08T15:26:28;9.20;99.90
8408;DHT22;4241;48.452;9.216;2024-03-08T15:28:55;9.20;99.90
8408;DHT22;4241;48.452;9.216;2024-03-08T15:31:22;9.20;99.90
8408;DHT22;4241;48.452;9.216;2024-03-08T15:33:50;9.30;99.90
8408;DHT22;4241;48.452;9.216;2024-03-08T15:36:27;9.30;99.90
8408;DHT22;4241;48.452;9.216;2024-03-08T15:38:56;9.30;99.90
8408;DHT22;4241;48.452;9.216;2024-03-08T15:41:23;9.20;99.90
8408;DHT22;4241;48.452;9.216;2024-03-08T15:43:52;9.30;99.90
8408;DHT22;4241;48.452;9.216;2024-03-08T15:46:20;9.30;99.90
8408;DHT22;4241;48.452;9.216;2024-03-08T15:48:48;9.30;99.90
8408;DHT22;4241;48.452;9.216;2024-03-08T15:51:16;9.40;99.90
8408;DHT22;4241;48.452;9.216;2024-03-08T15:53:45;9.30;99.90
8408;DHT22;4241;48.452;9.216;2024-03-08T15:56:18;9.30;99.90
8408;DHT22;4241;48.452;9.216;2024-03-08T15:58:45;9.40;99.90
8408;DHT22;4241;48.452;9.216;2024-03-08T16:01:12;9.40;99.90
8408;DHT22;4241;48.452;9.216;2024-03-08T16:03:41;9.30;99.90
8408;DHT22;4241;48.452;9.216;2024-03-08T16:06:08;9.30;99.90
8408;DHT22;4241;48.452;9.216;2024-03-08T16:08:35;9.20;99.90
8408;DHT22;4241;48.452;9.216;2024-03-08T16:11:06;9.50;99.90
8408;DHT22;4241;48.452;9.216;2024-03-08T16:13:34;9.20;99.90
8408;DHT22;4241;48.452;9.216;2024-03-08T16:16:04;9.20;99.90
8408;DHT22;4241;48.452;9.216;2024-03-08T16:18:30;9.20;99.90
8408;DHT22;4241;48.452;9.216;2024-03-08T16:21:00;8.90;99.90
8408;DHT22;4241;48.452;9.216;2024-03-08T16:23:28;9.10;99.90